Terminal Aerodrome Forecast
Issued by NWS

Home | Current Version | Previous Version | Text Only | Print | Product List | Glossary On
Versions: 1 2 3 4 5 6 7 8 9 10 11 12 13
000
FTUS41 KPBZ 241120
TAFLBE
TAF
KLBE 241120Z 2412/2512 11010KT 6SM -RA OVC070
     FM241700 11013G23KT 5SM -RA OVC035
     FM250100 11014G22KT P6SM VCSH OVC025
     FM250300 10010G19KT P6SM VCSH OVC015
     FM250500 10007KT P6SM VCSH OVC010=

USA.gov is the U.S. government's official web portal to all federal, state and local government web resources and services.